Time;durP1;ratioP1;P1;durP2;ratioP2;P2;SDS_P1;SDS_P2;PMS_P1;PMS_P2;Temp;Humidity;BMP_temperature;BMP_pressure;BME280_temperature;BME280_humidity;BME280_pressure;Samples;Min_cycle;Max_cycle;Signal;HPM_P1;HPM_P2
2021/04/10 00:00:52;;;;;;;8.55;4.63;;;6.00;66.80;;;;;;4930831;29;20147;-70
2021/04/10 00:03:18;;;;;;;7.00;4.60;;;6.00;66.40;;;;;;4930913;29;20146;-69
2021/04/10 00:05:44;;;;;;;8.38;4.05;;;6.00;66.00;;;;;;4930915;29;20256;-69
2021/04/10 00:08:10;;;;;;;7.20;4.55;;;5.90;66.70;;;;;;4930763;29;20091;-69
2021/04/10 00:10:36;;;;;;;6.50;4.30;;;6.00;66.90;;;;;;4931172;29;20090;-70
2021/04/10 00:13:02;;;;;;;7.15;4.18;;;6.00;66.50;;;;;;4930806;29;20193;-70
2021/04/10 00:15:29;;;;;;;11.40;5.10;;;6.00;66.20;;;;;;4930710;29;20052;-69
2021/04/10 00:17:56;;;;;;;7.97;4.60;;;6.00;66.70;;;;;;4930869;29;20518;-70
2021/04/10 00:20:23;;;;;;;5.47;4.13;;;5.90;66.30;;;;;;4931124;29;20134;-69
2021/04/10 00:22:50;;;;;;;8.43;5.07;;;6.00;66.40;;;;;;4930485;29;20087;-69
2021/04/10 00:25:16;;;;;;;7.93;3.72;;;6.00;66.50;;;;;;4930856;29;20047;-69
2021/04/10 00:27:43;;;;;;;8.48;4.70;;;6.00;65.90;;;;;;4930409;29;20138;-69
2021/04/10 00:30:12;;;;;;;8.10;4.00;;;6.00;66.50;;;;;;4930739;29;20059;-69
2021/04/10 00:32:38;;;;;;;5.97;4.15;;;5.90;65.80;;;;;;4929990;29;20523;-70
2021/04/10 00:35:06;;;;;;;7.05;3.70;;;6.00;66.30;;;;;;4931571;29;20071;-69
2021/04/10 00:37:32;;;;;;;8.40;4.07;;;5.90;65.90;;;;;;4943678;29;20135;-69
2021/04/10 00:39:58;;;;;;;8.52;4.65;;;5.90;66.00;;;;;;4934480;29;20126;-69
2021/04/10 00:42:25;;;;;;;9.68;4.25;;;5.90;65.80;;;;;;4934392;29;20182;-69
2021/04/10 00:44:51;;;;;;;4.75;3.85;;;6.00;66.00;;;;;;4934404;29;20099;-69
2021/04/10 00:47:17;;;;;;;8.35;4.35;;;5.90;65.80;;;;;;4934149;29;20519;-69
2021/04/10 00:49:46;;;;;;;8.48;4.68;;;5.90;65.60;;;;;;4934314;29;20069;-69
2021/04/10 00:52:15;;;;;;;7.50;4.22;;;5.90;65.80;;;;;;4934245;29;20131;-69
2021/04/10 00:54:41;;;;;;;10.93;4.13;;;5.90;65.90;;;;;;4932713;29;20431;-69
2021/04/10 00:57:08;;;;;;;12.35;3.95;;;5.90;65.70;;;;;;4948777;28;20532;-69
2021/04/10 00:59:34;;;;;;;7.55;3.97;;;5.90;66.30;;;;;;4934391;29;20059;-69
2021/04/10 01:02:02;;;;;;;7.32;4.28;;;5.90;65.80;;;;;;4934118;29;20194;-69
2021/04/10 01:04:29;;;;;;;6.10;3.92;;;5.90;65.50;;;;;;4934077;29;20055;-69
2021/04/10 01:06:56;;;;;;;6.78;4.43;;;5.80;65.80;;;;;;4945313;29;20595;-69
2021/04/10 01:09:22;;;;;;;6.25;4.22;;;5.80;65.90;;;;;;4930035;29;20055;-69
2021/04/10 01:12:07;;;;;;;11.50;4.57;;;5.90;65.90;;;;;;4945176;29;20083;-69
2021/04/10 01:15:04;;;;;;;11.73;4.80;;;5.80;66.00;;;;;;4932815;29;20055;-70
2021/04/10 01:17:33;;;;;;;5.47;3.63;;;5.70;66.00;;;;;;4922175;29;20142;-69
2021/04/10 01:20:37;;;;;;;6.35;3.88;;;5.70;66.00;;;;;;4933908;29;20056;-70
2021/04/10 01:23:25;;;;;;;6.57;3.60;;;5.70;65.90;;;;;;4932858;29;20130;-69
2021/04/10 01:26:00;;;;;;;5.65;4.10;;;5.60;66.20;;;;;;4933678;29;20500;-70
2021/04/10 01:28:45;;;;;;;7.20;3.45;;;5.60;66.00;;;;;;4932260;29;20587;-70
2021/04/10 01:31:15;;;;;;;9.00;4.07;;;5.60;66.10;;;;;;4933778;29;20079;-70
2021/04/10 01:33:48;;;;;;;10.27;4.63;;;5.50;66.50;;;;;;4947181;29;20184;-69
2021/04/10 01:36:19;;;;;;;7.75;4.03;;;5.50;66.70;;;;;;4953769;28;20055;-69
2021/04/10 01:38:48;;;;;;;5.82;4.28;;;5.50;66.70;;;;;;4935425;29;20500;-70
2021/04/10 01:41:17;;;;;;;8.15;3.80;;;5.50;66.20;;;;;;4933706;29;20575;-70
2021/04/10 01:43:45;;;;;;;4.60;3.28;;;5.50;66.10;;;;;;4948029;28;20134;-70
2021/04/10 01:46:12;;;;;;;5.28;3.13;;;5.40;66.20;;;;;;4944638;29;20052;-70
2021/04/10 01:48:42;;;;;;;7.70;4.65;;;5.40;66.70;;;;;;4945876;28;20142;-70
2021/04/10 01:51:09;;;;;;;5.63;3.70;;;5.40;66.30;;;;;;4933276;29;20102;-70
2021/04/10 01:53:37;;;;;;;9.43;4.28;;;5.30;66.50;;;;;;4931950;29;20143;-70
2021/04/10 01:56:06;;;;;;;6.95;3.80;;;5.30;66.70;;;;;;4932997;29;20504;-69
2021/04/10 01:58:43;;;;;;;6.80;3.67;;;5.20;66.80;;;;;;4921174;29;20107;-69
2021/04/10 02:01:12;;;;;;;7.53;4.13;;;5.20;66.90;;;;;;4947310;29;20059;-69
2021/04/10 02:03:48;;;;;;;6.13;3.88;;;5.20;66.80;;;;;;4931656;29;20472;-69
2021/04/10 02:06:18;;;;;;;7.65;3.83;;;5.20;66.90;;;;;;4947550;28;20051;-69
2021/04/10 02:08:52;;;;;;;6.32;3.65;;;5.10;67.20;;;;;;4932620;29;20548;-69
2021/04/10 02:11:37;;;;;;;8.52;4.28;;;5.00;67.20;;;;;;4929834;29;20416;-70
2021/04/10 02:14:12;;;;;;;5.70;3.67;;;5.10;67.00;;;;;;4946060;29;20601;-70
2021/04/10 02:16:49;;;;;;;5.97;3.85;;;5.00;67.10;;;;;;4933050;29;20199;-70
2021/04/10 02:19:18;;;;;;;7.70;4.30;;;5.00;67.70;;;;;;4931519;29;20150;-70
2021/04/10 02:21:51;;;;;;;6.00;3.58;;;5.00;67.30;;;;;;4932963;29;20481;-70
2021/04/10 02:24:19;;;;;;;7.40;4.22;;;5.00;67.60;;;;;;4932068;29;20512;-70
2021/04/10 02:26:55;;;;;;;8.02;4.25;;;5.00;67.10;;;;;;4932189;29;20178;-69
2021/04/10 02:29:24;;;;;;;7.45;4.13;;;4.90;67.20;;;;;;4920221;29;20087;-70
2021/04/10 02:32:24;;;;;;;6.28;3.83;;;4.90;67.60;;;;;;4944153;29;20044;-70
2021/04/10 02:35:04;;;;;;;8.70;3.90;;;5.00;67.60;;;;;;4931026;29;20135;-70
2021/04/10 02:37:33;;;;;;;6.32;3.60;;;5.00;67.80;;;;;;4952891;28;20269;-70
2021/04/10 02:40:06;;;;;;;3.80;3.15;;;5.00;67.70;;;;;;4941900;29;20091;-70
2021/04/10 02:42:42;;;;;;;11.18;4.35;;;5.00;67.20;;;;;;4947299;28;20098;-70
2021/04/10 02:45:09;;;;;;;13.95;4.53;;;4.90;67.50;;;;;;4946589;28;20138;-70
2021/04/10 02:47:38;;;;;;;8.18;3.55;;;4.90;67.60;;;;;;4946832;28;20048;-70
2021/04/10 02:50:06;;;;;;;9.27;3.83;;;5.00;67.40;;;;;;4932166;29;20476;-69
2021/04/10 02:52:42;;;;;;;8.63;3.50;;;4.90;67.60;;;;;;4932363;29;20047;-70
2021/04/10 02:55:13;;;;;;;4.28;3.40;;;4.90;67.70;;;;;;4930405;29;20063;-70
2021/04/10 02:57:41;;;;;;;5.43;3.55;;;5.10;67.20;;;;;;4931594;29;20058;-69
2021/04/10 03:00:08;;;;;;;7.22;3.83;;;5.10;67.30;;;;;;4942999;29;20679;-69
2021/04/10 03:02:41;;;;;;;4.85;3.33;;;5.10;67.30;;;;;;4940751;29;20051;-70
2021/04/10 03:05:12;;;;;;;5.20;3.45;;;5.10;67.60;;;;;;4946569;28;20455;-69
2021/04/10 03:07:47;;;;;;;8.07;3.72;;;5.10;67.60;;;;;;4931592;29;20067;-70
2021/04/10 03:10:18;;;;;;;7.82;3.55;;;5.10;67.40;;;;;;4931536;29;20190;-70
2021/04/10 03:12:47;;;;;;;5.60;3.58;;;5.10;67.10;;;;;;4946082;29;20134;-70
2021/04/10 03:15:16;;;;;;;6.15;3.08;;;5.10;67.00;;;;;;4945288;29;20143;-70
2021/04/10 03:17:49;;;;;;;8.77;4.10;;;5.10;66.70;;;;;;4931689;29;20065;-70
2021/04/10 03:20:17;;;;;;;5.88;3.42;;;5.10;66.50;;;;;;4931416;29;20592;-70
2021/04/10 03:22:48;;;;;;;7.55;3.60;;;5.10;66.20;;;;;;4930267;29;20048;-70
2021/04/10 03:25:21;;;;;;;5.60;3.70;;;5.10;66.30;;;;;;4946003;28;20134;-70
2021/04/10 03:27:49;;;;;;;8.52;3.75;;;5.10;66.30;;;;;;4930232;29;20047;-70
2021/04/10 03:30:16;;;;;;;6.80;3.40;;;5.10;66.50;;;;;;4943500;29;20063;-70
2021/04/10 03:32:49;;;;;;;6.63;4.40;;;5.10;66.50;;;;;;4930570;29;20044;-70
2021/04/10 03:35:16;;;;;;;7.28;4.10;;;5.10;66.20;;;;;;4931396;29;20238;-70
2021/04/10 03:37:43;;;;;;;6.80;3.80;;;5.10;66.50;;;;;;4939211;29;20052;-70
2021/04/10 03:40:13;;;;;;;5.40;3.58;;;5.10;66.60;;;;;;4945676;28;20162;-70
2021/04/10 03:42:45;;;;;;;5.72;3.33;;;5.10;66.40;;;;;;4931025;29;20415;-70
2021/04/10 03:45:17;;;;;;;;;;;5.00;65.80;;;;;;4946091;28;20134;-70
2021/04/10 03:47:44;;;;;;;10.48;4.13;;;5.00;66.10;;;;;;4929982;29;19926;-70
2021/04/10 03:50:11;;;;;;;5.43;3.40;;;5.10;66.20;;;;;;4931187;29;20086;-70
2021/04/10 03:52:40;;;;;;;5.82;3.50;;;5.00;66.10;;;;;;4943074;29;20563;-70
2021/04/10 03:55:10;;;;;;;6.75;3.35;;;5.00;66.10;;;;;;4943891;28;20134;-70
2021/04/10 03:57:36;;;;;;;6.22;3.67;;;5.00;66.10;;;;;;4931047;29;20092;-70
2021/04/10 04:00:04;;;;;;;6.03;3.80;;;5.00;66.10;;;;;;4942218;29;20063;-70
2021/04/10 04:02:41;;;;;;;6.97;3.15;;;5.00;65.90;;;;;;4925761;29;20095;-70
2021/04/10 04:05:09;;;;;;;6.80;3.33;;;5.10;65.80;;;;;;4931024;29;20138;-70
2021/04/10 04:07:35;;;;;;;5.22;3.08;;;5.10;65.70;;;;;;4930887;29;20142;-70
2021/04/10 04:10:02;;;;;;;6.68;3.50;;;5.10;66.30;;;;;;4930363;29;20060;-70
2021/04/10 04:12:28;;;;;;;7.78;3.90;;;5.20;65.60;;;;;;4930680;29;20055;-70
2021/04/10 04:14:54;;;;;;;6.82;3.05;;;5.30;65.70;;;;;;4942823;29;20131;-70
2021/04/10 04:17:20;;;;;;;5.47;3.38;;;5.30;65.50;;;;;;4930234;29;20077;-70
2021/04/10 04:19:47;;;;;;;8.93;3.72;;;5.40;65.20;;;;;;4930951;29;20142;-70
2021/04/10 04:22:13;;;;;;;7.07;4.03;;;5.40;64.90;;;;;;4930711;29;20138;-70
2021/04/10 04:24:39;;;;;;;8.77;4.45;;;5.50;64.90;;;;;;4930740;29;20539;-70
2021/04/10 04:27:06;;;;;;;4.45;3.10;;;5.50;64.40;;;;;;4930568;29;20138;-70
2021/04/10 04:29:32;;;;;;;5.03;3.78;;;5.60;64.20;;;;;;4930865;29;20154;-70
2021/04/10 04:31:58;;;;;;;7.38;3.72;;;5.60;64.00;;;;;;4930857;29;20595;-70
2021/04/10 04:34:24;;;;;;;10.02;3.50;;;5.70;64.20;;;;;;4930631;29;20159;-70
2021/04/10 04:36:50;;;;;;;8.80;4.25;;;5.70;64.20;;;;;;4928247;29;20083;-70
2021/04/10 04:39:17;;;;;;;7.05;4.00;;;5.80;63.90;;;;;;4930569;29;20146;-69
2021/04/10 04:41:42;;;;;;;5.93;3.58;;;5.70;64.20;;;;;;4930649;29;20047;-69
2021/04/10 04:44:09;;;;;;;11.68;3.50;;;5.80;64.10;;;;;;4930439;29;20083;-70
2021/04/10 04:46:34;;;;;;;8.13;3.30;;;5.80;64.40;;;;;;4930852;29;20106;-70
2021/04/10 04:49:01;;;;;;;6.68;3.70;;;5.80;64.40;;;;;;4930581;29;20151;-70
2021/04/10 04:51:27;;;;;;;8.23;3.80;;;5.80;64.30;;;;;;4930125;29;20130;-70
2021/04/10 04:53:53;;;;;;;7.88;3.45;;;5.70;64.10;;;;;;4930620;29;20134;-70
2021/04/10 04:56:19;;;;;;;4.45;3.67;;;5.70;64.60;;;;;;4934034;29;20150;-70
2021/04/10 04:58:45;;;;;;;7.63;3.53;;;5.70;64.80;;;;;;4949814;29;20138;-70
2021/04/10 05:01:11;;;;;;;5.50;3.50;;;5.80;64.70;;;;;;4949211;29;20150;-70
2021/04/10 05:03:37;;;;;;;4.93;4.05;;;5.70;65.20;;;;;;4950026;29;20138;-70
2021/04/10 05:06:03;;;;;;;7.68;3.75;;;5.80;65.50;;;;;;4949703;29;20059;-70
2021/04/10 05:08:29;;;;;;;8.00;3.80;;;5.80;65.40;;;;;;4949499;29;20138;-70
2021/04/10 05:10:55;;;;;;;7.00;3.28;;;5.90;65.30;;;;;;4940165;29;20175;-70
2021/04/10 05:13:21;;;;;;;4.95;3.72;;;6.00;65.00;;;;;;4930240;29;20136;-69
2021/04/10 05:15:48;;;;;;;6.53;3.63;;;6.00;64.70;;;;;;4934016;29;20162;-70
2021/04/10 05:18:14;;;;;;;8.02;3.63;;;6.10;64.50;;;;;;4949197;28;20053;-69
2021/04/10 05:20:40;;;;;;;9.40;3.38;;;6.20;63.80;;;;;;4949322;28;20130;-70
2021/04/10 05:23:06;;;;;;;3.83;2.97;;;6.30;63.30;;;;;;4967790;28;20143;-70
2021/04/10 05:25:33;;;;;;;5.47;3.50;;;6.40;62.70;;;;;;4952807;29;20138;-70
2021/04/10 05:27:59;;;;;;;6.65;4.20;;;6.50;62.40;;;;;;4952642;28;20146;-69
2021/04/10 05:30:25;;;;;;;5.88;3.60;;;6.60;62.70;;;;;;4952627;29;20468;-69
2021/04/10 05:32:51;;;;;;;7.22;4.10;;;6.70;62.10;;;;;;4952649;29;20129;-69
2021/04/10 05:35:17;;;;;;;5.22;3.63;;;6.90;61.60;;;;;;4950445;29;20480;-69
2021/04/10 05:37:44;;;;;;;4.47;3.90;;;7.00;61.50;;;;;;4942597;29;20056;-69
2021/04/10 05:40:10;;;;;;;8.57;3.80;;;7.10;60.60;;;;;;4933353;29;20051;-69
2021/04/10 05:42:36;;;;;;;6.65;3.53;;;7.30;60.20;;;;;;4933699;29;20139;-70
2021/04/10 05:45:03;;;;;;;8.20;4.30;;;7.50;59.40;;;;;;4933273;29;20138;-70
2021/04/10 05:47:29;;;;;;;5.75;3.80;;;7.70;59.00;;;;;;4933524;29;20131;-69
2021/04/10 05:49:55;;;;;;;8.73;3.88;;;7.90;58.80;;;;;;4933249;29;20163;-69
2021/04/10 05:52:21;;;;;;;10.77;4.05;;;8.20;57.80;;;;;;4931799;29;20191;-70
2021/04/10 05:54:47;;;;;;;3.65;3.25;;;8.40;57.30;;;;;;4933060;29;20127;-69
2021/04/10 05:57:13;;;;;;;5.45;3.88;;;8.70;55.90;;;;;;4933324;29;20138;-69
2021/04/10 05:59:39;;;;;;;7.82;3.90;;;9.00;55.20;;;;;;4932671;29;20650;-68
2021/04/10 06:02:06;;;;;;;6.63;3.85;;;9.80;53.30;;;;;;4933004;29;20578;-69
2021/04/10 06:04:36;;;;;;;4.68;3.67;;;11.70;49.60;;;;;;4933172;29;20047;-68
2021/04/10 06:07:03;;;;;;;8.20;4.45;;;13.60;44.90;;;;;;4932980;29;20175;-69
2021/04/10 06:09:29;;;;;;;5.63;3.63;;;14.70;42.80;;;;;;4932737;29;20051;-66
2021/04/10 06:11:56;;;;;;;4.95;4.47;;;15.70;40.80;;;;;;4932815;29;20059;-69
2021/04/10 06:14:22;;;;;;;4.40;4.00;;;16.40;39.80;;;;;;4932932;29;20051;-68
2021/04/10 06:16:51;;;;;;;5.53;4.05;;;16.90;38.60;;;;;;4941794;29;20126;-69
2021/04/10 06:19:19;;;;;;;6.60;3.75;;;17.50;37.90;;;;;;4951811;28;20586;-69
2021/04/10 06:21:46;;;;;;;3.90;3.47;;;17.90;37.20;;;;;;4950735;28;20193;-68
2021/04/10 06:24:14;;;;;;;5.22;3.47;;;18.30;36.70;;;;;;4952064;29;20062;-68
2021/04/10 06:26:44;;;;;;;7.40;3.58;;;18.70;36.30;;;;;;4951510;29;20609;-68
2021/04/10 06:29:11;;;;;;;5.63;3.88;;;19.10;35.90;;;;;;4951685;29;20224;-68
2021/04/10 06:31:38;;;;;;;4.55;3.60;;;19.40;35.00;;;;;;4951445;29;20568;-66
2021/04/10 06:34:04;;;;;;;7.32;4.50;;;19.50;35.70;;;;;;4951003;28;20522;-67
2021/04/10 06:36:31;;;;;;;4.95;4.35;;;20.00;34.40;;;;;;4962287;28;20055;-67
2021/04/10 06:38:57;;;;;;;6.18;4.15;;;20.70;34.00;;;;;;4933519;29;20047;-67
2021/04/10 06:41:23;;;;;;;6.50;4.10;;;21.00;33.70;;;;;;4932292;29;20123;-68
2021/04/10 06:43:50;;;;;;;6.38;4.20;;;21.20;33.20;;;;;;4932220;29;20512;-66
2021/04/10 06:46:17;;;;;;;5.55;3.80;;;21.40;32.80;;;;;;4932388;29;20142;-67
2021/04/10 06:48:45;;;;;;;4.57;3.92;;;21.70;32.50;;;;;;4931930;29;20055;-68
2021/04/10 06:51:14;;;;;;;6.32;4.60;;;21.40;32.10;;;;;;4931880;29;20138;-66
2021/04/10 06:53:45;;;;;;;5.18;3.30;;;21.30;32.40;;;;;;4932111;29;20048;-64
2021/04/10 06:56:17;;;;;;;5.95;4.03;;;21.30;32.50;;;;;;4934572;29;20094;-69
2021/04/10 06:59:02;;;;;;;6.77;4.40;;;21.20;32.40;;;;;;4940380;29;20095;-69
2021/04/10 07:01:30;;;;;;;6.28;3.88;;;20.90;32.80;;;;;;4942362;29;20134;-68
2021/04/10 07:03:56;;;;;;;6.25;3.80;;;20.60;33.00;;;;;;4932252;29;20047;-69
2021/04/10 07:06:23;;;;;;;5.00;4.22;;;20.60;33.00;;;;;;4932752;29;20170;-73
2021/04/10 07:08:48;;;;;;;9.32;4.10;;;20.60;33.00;;;;;;4930378;29;20074;-70
2021/04/10 07:11:15;;;;;;;4.88;4.47;;;20.40;33.10;;;;;;4929716;29;20126;-75
2021/04/10 07:13:42;;;;;;;4.03;3.67;;;20.20;33.50;;;;;;4939580;29;20407;-75
2021/04/10 07:16:09;;;;;;;7.50;3.97;;;20.10;33.80;;;;;;4936089;29;20512;-73
2021/04/10 07:18:35;;;;;;;4.68;3.65;;;20.00;34.60;;;;;;4938870;28;20397;-73
2021/04/10 07:21:19;;;;;;;4.38;3.88;;;19.90;34.00;;;;;;4962884;28;20106;-73
2021/04/10 07:23:49;;;;;;;5.05;4.10;;;20.00;34.20;;;;;;4950358;29;20419;-72
2021/04/10 07:26:17;;;;;;;8.18;4.22;;;20.00;34.00;;;;;;4950668;28;20058;-70
2021/04/10 07:28:43;;;;;;;4.97;4.22;;;20.00;34.30;;;;;;4949697;29;20047;-78
2021/04/10 07:31:13;;;;;;;6.47;3.60;;;20.20;34.20;;;;;;4925806;29;20135;-73
2021/04/10 07:33:42;;;;;;;4.72;3.60;;;20.30;33.90;;;;;;4931157;29;20078;-72
2021/04/10 07:36:13;;;;;;;3.75;3.42;;;20.70;33.80;;;;;;4935696;29;20094;-70
2021/04/10 07:38:41;;;;;;;5.95;4.07;;;21.20;33.50;;;;;;4934730;29;20062;-72
2021/04/10 07:41:28;;;;;;;7.05;3.72;;;21.30;33.30;;;;;;4931109;29;20138;-72
2021/04/10 07:43:54;;;;;;;5.68;3.90;;;21.30;33.20;;;;;;4931082;28;20056;-70
2021/04/10 07:46:27;;;;;;;5.97;4.20;;;21.20;33.20;;;;;;4930279;29;20582;-73
2021/04/10 07:49:04;;;;;;;8.85;4.85;;;20.90;33.40;;;;;;4929134;29;20043;-73
2021/04/10 07:51:52;;;;;;;36.92;5.70;;;20.90;33.30;;;;;;4933965;29;20182;-70
2021/04/10 07:54:43;;;;;;;5.95;3.30;;;21.20;33.60;;;;;;4929159;29;20059;-67
2021/04/10 07:57:11;;;;;;;5.05;3.90;;;21.60;33.30;;;;;;4914358;29;20714;-66
2021/04/10 07:59:46;;;;;;;9.45;3.72;;;21.50;33.10;;;;;;4923309;29;20118;-70
2021/04/10 08:02:14;;;;;;;7.22;4.35;;;21.80;32.90;;;;;;4931835;29;20522;-69
2021/04/10 08:04:41;;;;;;;6.57;3.88;;;22.20;32.40;;;;;;4940991;29;20472;-71
2021/04/10 08:07:08;;;;;;;8.00;4.07;;;22.20;32.70;;;;;;4937140;29;20146;-70
2021/04/10 08:09:39;;;;;;;5.30;4.03;;;22.50;32.30;;;;;;4940471;29;20079;-71
2021/04/10 08:12:09;;;;;;;6.53;3.78;;;22.90;31.90;;;;;;4934758;29;20507;-72
2021/04/10 08:14:45;;;;;;;4.63;3.75;;;23.30;31.40;;;;;;4939952;29;20043;-72
2021/04/10 08:17:40;;;;;;;15.98;3.90;;;23.50;31.50;;;;;;4927168;29;20142;-70
2021/04/10 08:20:28;;;;;;;13.95;4.22;;;23.60;31.20;;;;;;4932711;29;20075;-70
2021/04/10 08:23:21;;;;;;;3.80;3.38;;;23.90;31.30;;;;;;4937863;29;20138;-71
2021/04/10 08:25:47;;;;;;;8.07;3.78;;;24.20;30.70;;;;;;4946171;29;20057;-70
2021/04/10 08:28:15;;;;;;;7.95;3.72;;;24.30;30.60;;;;;;4945144;29;20059;-72
2021/04/10 08:30:44;;;;;;;5.07;4.15;;;24.20;31.10;;;;;;4946589;29;20051;-70
2021/04/10 08:33:11;;;;;;;4.63;4.18;;;24.60;30.40;;;;;;4934917;29;20195;-70
2021/04/10 08:35:37;;;;;;;4.50;3.67;;;24.90;30.20;;;;;;4938633;28;20504;-70
2021/04/10 08:38:05;;;;;;;6.13;3.70;;;24.90;30.00;;;;;;4942030;29;20134;-70
2021/04/10 08:40:34;;;;;;;4.90;3.50;;;25.10;30.10;;;;;;4947113;29;20059;-70
2021/04/10 08:43:01;;;;;;;4.53;3.15;;;25.40;29.80;;;;;;4947157;29;20055;-70
2021/04/10 08:45:32;;;;;;;6.97;3.88;;;25.50;30.00;;;;;;4945402;28;20047;-74
2021/04/10 08:48:07;;;;;;;3.70;3.30;;;25.60;30.00;;;;;;4935799;28;20547;-75
2021/04/10 08:50:36;;;;;;;7.65;3.88;;;25.50;30.00;;;;;;4930189;28;20050;-72
2021/04/10 08:53:08;;;;;;;3.53;3.30;;;25.70;29.70;;;;;;4941911;29;20082;-74
2021/04/10 08:55:38;;;;;;;4.95;3.53;;;25.90;29.60;;;;;;4935444;28;20043;-75
2021/04/10 08:58:24;;;;;;;7.38;3.20;;;26.20;29.70;;;;;;4953096;29;20180;-71
2021/04/10 09:01:07;;;;;;;6.00;3.42;;;26.60;29.40;;;;;;4951721;28;20071;-70
2021/04/10 09:03:46;;;;;;;3.60;3.05;;;26.60;29.30;;;;;;4953105;28;20599;-71
2021/04/10 09:06:12;;;;;;;3.70;3.40;;;26.80;29.40;;;;;;4944553;29;20060;-74
2021/04/10 09:08:47;;;;;;;3.85;3.30;;;27.40;29.10;;;;;;4942010;29;20150;-70
2021/04/10 09:11:22;;;;;;;4.85;2.75;;;27.70;29.00;;;;;;4937166;29;20047;-70
2021/04/10 09:13:50;;;;;;;9.45;3.75;;;28.20;28.70;;;;;;4953082;28;20502;-69
2021/04/10 09:16:40;;;;;;;3.53;3.22;;;28.50;28.50;;;;;;4948201;29;20078;-70
2021/04/10 09:19:27;;;;;;;5.72;4.22;;;28.80;28.20;;;;;;4952880;29;20536;-72
2021/04/10 09:22:00;;;;;;;3.53;3.22;;;28.80;28.20;;;;;;4949238;29;20087;-72
2021/04/10 09:24:32;;;;;;;8.10;3.28;;;28.80;28.10;;;;;;4952157;29;20508;-72
2021/04/10 09:26:58;;;;;;;8.45;3.47;;;29.40;28.30;;;;;;4949638;29;20091;-71
2021/04/10 09:29:26;;;;;;;3.75;3.35;;;29.90;27.70;;;;;;4933694;29;20082;-72
2021/04/10 09:32:01;;;;;;;3.97;3.60;;;29.90;27.60;;;;;;4949115;29;20547;-72
2021/04/10 09:34:46;;;;;;;3.42;3.05;;;30.10;27.70;;;;;;4952826;29;20154;-70
2021/04/10 09:37:32;;;;;;;6.57;3.30;;;30.70;27.20;;;;;;4946997;28;20086;-74
2021/04/10 09:40:23;;;;;;;3.45;2.80;;;31.10;26.80;;;;;;4966022;28;20051;-74
2021/04/10 09:43:09;;;;;;;3.20;2.83;;;30.80;26.80;;;;;;4952574;29;20857;-74
2021/04/10 09:45:37;;;;;;;7.60;3.60;;;31.30;26.60;;;;;;4953060;29;20055;-76
2021/04/10 09:48:04;;;;;;;5.57;2.65;;;31.70;26.70;;;;;;4945489;29;20489;-73
2021/04/10 09:50:32;;;;;;;5.63;3.03;;;32.10;26.90;;;;;;4951059;29;20051;-67
2021/04/10 09:53:08;;;;;;;12.02;3.00;;;32.20;26.60;;;;;;4950955;29;20055;-64
2021/04/10 09:55:37;;;;;;;5.00;3.40;;;31.90;26.60;;;;;;4943981;29;20570;-65
2021/04/10 09:58:11;;;;;;;3.20;2.88;;;31.60;26.50;;;;;;4943441;29;20059;-60
2021/04/10 10:00:41;;;;;;;5.40;3.20;;;31.30;26.50;;;;;;4945136;29;20170;-67
2021/04/10 10:03:08;;;;;;;2.70;2.58;;;30.90;26.80;;;;;;4952081;29;20050;-70
2021/04/10 10:05:44;;;;;;;6.68;3.40;;;30.90;27.10;;;;;;4940946;29;20087;-66
2021/04/10 10:08:14;;;;;;;5.22;3.38;;;31.20;26.70;;;;;;4931792;29;20138;-59
2021/04/10 10:10:45;;;;;;;3.67;3.13;;;31.00;26.30;;;;;;4933037;29;20135;-63
2021/04/10 10:13:17;;;;;;;3.50;2.40;;;31.00;26.30;;;;;;4933079;29;20516;-63
2021/04/10 10:15:45;;;;;;;3.15;2.85;;;30.80;26.30;;;;;;4934995;29;20130;-62
2021/04/10 10:18:22;;;;;;;4.53;2.42;;;30.30;26.60;;;;;;4951889;29;20138;-61
2021/04/10 10:21:09;;;;;;;6.75;3.15;;;30.00;26.80;;;;;;4920089;29;20160;-74
2021/04/10 10:23:38;;;;;;;3.90;3.28;;;29.50;26.80;;;;;;4932978;29;20063;-72
2021/04/10 10:26:14;;;;;;;6.82;3.17;;;29.10;27.00;;;;;;4931834;29;20127;-72
2021/04/10 10:28:46;;;;;;;3.20;2.78;;;28.90;27.10;;;;;;4930966;29;20051;-72
2021/04/10 10:31:13;;;;;;;3.17;2.92;;;28.80;27.10;;;;;;4932863;29;20134;-71
2021/04/10 10:33:40;;;;;;;4.90;2.90;;;28.70;27.20;;;;;;4938085;29;20078;-75
2021/04/10 10:36:07;;;;;;;4.82;3.30;;;28.60;27.30;;;;;;4945955;29;20491;-72
2021/04/10 10:38:36;;;;;;;5.53;3.05;;;28.60;27.30;;;;;;4937833;29;20632;-68
2021/04/10 10:41:05;;;;;;;4.53;3.20;;;28.40;27.20;;;;;;4942862;29;20123;-78
2021/04/10 10:43:32;;;;;;;3.72;3.28;;;28.30;27.50;;;;;;4932045;29;20058;-74
2021/04/10 10:46:10;;;;;;;2.95;2.65;;;28.10;27.70;;;;;;4943251;29;20566;-71
2021/04/10 10:48:40;;;;;;;4.97;3.10;;;28.10;27.70;;;;;;4945951;29;20051;-74
2021/04/10 10:51:10;;;;;;;5.82;3.08;;;28.00;27.60;;;;;;4951181;29;20146;-72
2021/04/10 10:53:46;;;;;;;4.57;2.67;;;28.10;27.50;;;;;;4951681;29;20065;-74
2021/04/10 10:56:25;;;;;;;4.07;3.00;;;28.20;28.20;;;;;;4948365;28;20134;-70
2021/04/10 10:59:02;;;;;;;8.20;2.97;;;28.30;27.60;;;;;;4939644;29;20449;-72
2021/04/10 11:01:35;;;;;;;3.15;2.85;;;28.40;27.20;;;;;;4951373;29;20134;-71
2021/04/10 11:04:11;;;;;;;3.17;2.55;;;28.70;27.50;;;;;;4951015;29;20051;-75
2021/04/10 11:06:50;;;;;;;2.30;2.20;;;28.50;26.80;;;;;;4932207;29;20141;-68
2021/04/10 11:09:30;;;;;;;3.15;2.85;;;28.20;27.10;;;;;;4948409;29;20047;-75
2021/04/10 11:12:01;;;;;;;3.13;2.83;;;28.10;27.30;;;;;;4938126;29;20048;-66
2021/04/10 11:14:39;;;;;;;3.83;3.42;;;28.10;27.50;;;;;;4930897;29;20079;-67
2021/04/10 11:17:06;;;;;;;3.30;2.85;;;28.10;27.50;;;;;;4938041;29;20464;-66
2021/04/10 11:19:40;;;;;;;4.35;2.95;;;28.30;27.50;;;;;;4948732;28;20051;-65
2021/04/10 11:22:08;;;;;;;2.83;2.58;;;28.50;27.30;;;;;;4939013;29;20419;-66
2021/04/10 11:24:39;;;;;;;7.65;3.63;;;28.50;27.40;;;;;;4928203;29;20048;-69
2021/04/10 11:27:15;;;;;;;2.67;2.43;;;28.30;27.40;;;;;;4938113;29;20462;-69
2021/04/10 11:29:59;;;;;;;3.08;2.78;;;27.80;27.70;;;;;;4951576;29;20324;-71
2021/04/10 11:32:33;;;;;;;4.35;2.83;;;27.40;27.70;;;;;;4950828;28;20109;-68
2021/04/10 11:35:20;;;;;;;6.25;2.83;;;27.30;28.00;;;;;;4950530;28;20051;-70
2021/04/10 11:37:51;;;;;;;2.92;2.75;;;27.00;27.90;;;;;;4931952;29;20078;-65
2021/04/10 11:40:21;;;;;;;5.15;2.75;;;26.60;28.10;;;;;;4942199;29;20480;-67
2021/04/10 11:42:49;;;;;;;6.80;3.58;;;26.30;28.30;;;;;;4950284;29;20078;-67
2021/04/10 11:45:30;;;;;;;5.38;3.38;;;26.20;28.20;;;;;;4950516;29;20051;-69
2021/04/10 11:48:23;;;;;;;3.53;3.05;;;25.80;28.50;;;;;;4943457;29;20066;-64
2021/04/10 11:50:56;;;;;;;7.25;3.92;;;25.60;28.30;;;;;;4932494;29;20055;-63
2021/04/10 11:53:35;;;;;;;3.08;2.67;;;25.40;29.40;;;;;;4928494;29;20108;-63
2021/04/10 11:56:21;;;;;;;4.28;2.92;;;25.20;29.00;;;;;;4931755;29;20142;-64
2021/04/10 11:59:08;;;;;;;3.42;3.13;;;25.10;29.20;;;;;;4932075;29;20126;-63
2021/04/10 12:01:36;;;;;;;3.50;2.55;;;24.90;28.90;;;;;;4928851;29;20048;-63
2021/04/10 12:04:03;;;;;;;3.25;2.95;;;24.70;29.30;;;;;;4927141;29;20141;-64
2021/04/10 12:06:37;;;;;;;6.47;2.83;;;24.40;29.40;;;;;;4927794;29;20102;-63
2021/04/10 12:09:13;;;;;;;6.70;2.80;;;24.20;29.40;;;;;;4929837;29;20194;-63
2021/04/10 12:11:42;;;;;;;6.07;3.10;;;24.10;29.40;;;;;;4931590;29;20153;-63
2021/04/10 12:14:13;;;;;;;8.02;2.58;;;24.10;29.70;;;;;;4932340;29;20568;-63
2021/04/10 12:16:41;;;;;;;4.20;2.45;;;24.20;29.90;;;;;;4936402;29;20447;-66
2021/04/10 12:19:08;;;;;;;4.00;2.78;;;24.20;29.40;;;;;;4920427;29;20118;-64
2021/04/10 12:21:34;;;;;;;5.03;2.58;;;24.10;29.40;;;;;;4931774;29;20051;-64
2021/04/10 12:24:01;;;;;;;2.75;2.10;;;23.90;29.50;;;;;;4931494;29;20066;-66
2021/04/10 12:26:28;;;;;;;6.60;2.20;;;23.50;30.10;;;;;;4945952;28;20051;-65
2021/04/10 12:28:54;;;;;;;7.47;2.55;;;23.40;30.60;;;;;;4931563;29;20496;-65
2021/04/10 12:31:22;;;;;;;3.70;2.90;;;23.40;30.60;;;;;;4932760;29;20051;-62
2021/04/10 12:33:49;;;;;;;3.63;2.10;;;23.50;30.80;;;;;;4935900;29;20055;-63
2021/04/10 12:36:15;;;;;;;2.80;2.20;;;23.60;30.20;;;;;;4937422;29;20063;-66
2021/04/10 12:38:41;;;;;;;2.92;2.53;;;23.50;30.90;;;;;;4935547;29;20192;-66
2021/04/10 12:41:08;;;;;;;5.97;2.65;;;23.70;29.80;;;;;;4939832;29;20051;-62
2021/04/10 12:43:35;;;;;;;2.75;2.25;;;23.60;30.00;;;;;;4936086;29;20147;-63
2021/04/10 12:46:01;;;;;;;3.20;1.80;;;23.50;30.10;;;;;;4939198;29;20078;-63
2021/04/10 12:48:27;;;;;;;3.47;1.88;;;23.60;30.40;;;;;;4931883;29;20167;-62
2021/04/10 12:50:53;;;;;;;3.58;2.50;;;23.80;29.40;;;;;;4935062;29;20110;-62
2021/04/10 12:53:19;;;;;;;8.02;3.33;;;23.90;29.70;;;;;;4931732;29;20583;-64
2021/04/10 12:55:46;;;;;;;7.88;2.92;;;23.90;29.90;;;;;;4938753;29;20139;-64
2021/04/10 12:58:12;;;;;;;2.72;2.53;;;23.80;30.00;;;;;;4929662;29;20088;-63
2021/04/10 13:00:38;;;;;;;1.77;1.67;;;23.60;30.50;;;;;;4931203;29;20487;-62
2021/04/10 13:03:05;;;;;;;2.55;1.85;;;23.40;30.40;;;;;;4931474;29;20052;-64
2021/04/10 13:05:31;;;;;;;2.47;1.70;;;23.40;30.00;;;;;;4940492;29;20523;-64
2021/04/10 13:07:57;;;;;;;5.15;2.28;;;23.40;30.30;;;;;;4931298;29;20853;-65